Time;durP1;ratioP1;P1;durP2;ratioP2;P2;SDS_P1;SDS_P2;PMS_P1;PMS_P2;Temp;Humidity;BMP_temperature;BMP_pressure;BME280_temperature;BME280_humidity;BME280_pressure;Samples;Min_cycle;Max_cycle;Signal;HPM_P1;HPM_P2
2023/11/06 00:01:16;;;;;;;2.77;0.80;;;11.10;1.00;;;;;;5028093;28;20398;-82
2023/11/06 00:03:45;;;;;;;2.43;1.03;;;11.00;1.00;;;;;;5027771;28;20945;-82
2023/11/06 00:06:15;;;;;;;6.83;1.20;;;11.00;1.00;;;;;;5043601;28;20939;-81
2023/11/06 00:09:15;;;;;;;3.33;1.17;;;11.10;1.00;;;;;;5026684;28;21023;-82
2023/11/06 00:11:45;;;;;;;2.60;1.20;;;11.10;1.00;;;;;;5015703;28;20407;-81
2023/11/06 00:14:15;;;;;;;6.37;1.10;;;11.10;1.00;;;;;;5017951;28;20419;-81
2023/11/06 00:16:46;;;;;;;4.03;1.10;;;11.10;1.00;;;;;;5002988;28;20429;-81
2023/11/06 00:19:45;;;;;;;4.10;1.27;;;11.00;1.00;;;;;;5018195;28;20431;-81
2023/11/06 00:22:11;;;;;;;2.07;1.20;;;11.10;1.00;;;;;;5032743;28;20440;-73
2023/11/06 00:24:39;;;;;;;3.63;0.90;;;11.10;1.00;;;;;;5028523;28;20463;-74
2023/11/06 00:27:05;;;;;;;2.50;1.20;;;11.10;1.00;;;;;;5010732;28;21005;-73
2023/11/06 00:29:33;;;;;;;3.00;1.40;;;11.10;1.00;;;;;;5028768;28;20408;-74
2023/11/06 00:32:02;;;;;;;2.20;1.20;;;10.90;1.00;;;;;;5018241;28;20383;-74
2023/11/06 00:34:39;;;;;;;1.93;0.90;;;10.90;1.00;;;;;;5031817;28;20416;-74
2023/11/06 00:37:14;;;;;;;8.20;1.10;;;11.00;1.00;;;;;;5029953;28;20414;-82
2023/11/06 00:39:42;;;;;;;6.80;1.20;;;10.90;1.00;;;;;;5008655;28;20436;-82
2023/11/06 00:42:15;;;;;;;5.53;1.23;;;10.90;1.00;;;;;;5034624;28;20415;-82
2023/11/06 00:44:41;;;;;;;1.87;1.10;;;11.00;1.00;;;;;;5021927;28;20436;-82
2023/11/06 00:47:07;;;;;;;1.20;1.10;;;11.00;1.00;;;;;;5020653;28;20470;-82
2023/11/06 00:49:32;;;;;;;3.33;1.30;;;11.10;1.00;;;;;;5021867;28;20181;-81
2023/11/06 00:51:58;;;;;;;3.93;1.10;;;11.00;1.00;;;;;;5029375;28;20172;-81
2023/11/06 00:55:15;;;;;;;3.50;1.30;;;11.10;1.00;;;;;;5027173;28;20173;-82
2023/11/06 00:57:47;;;;;;;8.60;0.93;;;11.00;1.00;;;;;;5027942;28;20180;-82
2023/11/06 01:00:16;;;;;;;3.90;1.10;;;11.10;1.00;;;;;;5028944;28;20416;-81
2023/11/06 01:02:42;;;;;;;3.07;1.20;;;11.00;1.00;;;;;;5027332;28;20457;-81
2023/11/06 01:05:16;;;;;;;4.20;1.37;;;11.10;1.00;;;;;;5014819;28;20431;-82
2023/11/06 01:07:42;;;;;;;2.90;1.13;;;11.10;1.00;;;;;;5029484;28;20453;-74
2023/11/06 01:10:09;;;;;;;1.63;0.73;;;11.10;1.00;;;;;;5015975;28;20388;-74
2023/11/06 01:12:35;;;;;;;2.33;0.90;;;11.10;1.00;;;;;;5024293;28;20431;-74
2023/11/06 01:15:01;;;;;;;13.83;1.23;;;11.10;1.00;;;;;;5021836;28;20441;-74
2023/11/06 01:17:27;;;;;;;4.50;1.30;;;11.20;1.00;;;;;;5024688;28;20598;-74
2023/11/06 01:19:53;;;;;;;5.00;1.90;;;11.10;1.00;;;;;;5015587;28;20436;-74
2023/11/06 01:22:21;;;;;;;3.00;0.90;;;11.10;1.00;;;;;;5029259;28;20419;-74
2023/11/06 01:25:04;;;;;;;7.03;1.50;;;11.10;1.00;;;;;;5018751;28;20940;-74
2023/11/06 01:27:31;;;;;;;8.63;1.20;;;;;;;;;;5026345;28;20451;-74
2023/11/06 01:29:57;;;;;;;2.70;1.53;;;11.20;1.00;;;;;;5015438;28;20809;-74
2023/11/06 01:32:33;;;;;;;11.47;1.17;;;11.20;1.00;;;;;;5020456;28;20415;-74
2023/11/06 01:35:04;;;;;;;7.63;1.13;;;11.20;1.00;;;;;;5023533;28;20173;-74
2023/11/06 01:37:29;;;;;;;9.00;1.37;;;11.20;1.00;;;;;;5022989;28;20468;-75
2023/11/06 01:39:55;;;;;;;7.07;1.20;;;11.20;1.00;;;;;;5021579;28;20424;-75
2023/11/06 01:42:33;;;;;;;2.37;1.10;;;11.20;1.00;;;;;;5033745;28;20195;-74
2023/11/06 01:44:59;;;;;;;4.00;1.17;;;11.20;1.00;;;;;;5017107;28;20174;-74
2023/11/06 01:47:28;;;;;;;4.10;1.20;;;11.20;1.00;;;;;;5017155;28;20601;-74
2023/11/06 01:49:57;;;;;;;11.10;1.50;;;11.10;1.00;;;;;;5017698;28;20263;-74
2023/11/06 01:55:46;;;;;;;5.50;1.00;;;11.10;1.00;;;;;;5004378;28;20419;-82
2023/11/06 01:58:45;;;;;;;9.63;1.30;;;11.10;1.00;;;;;;5032276;28;20415;-82
2023/11/06 02:07:54;;;;;;;3.70;1.10;;;11.20;1.00;;;;;;5025133;28;20826;-82
2023/11/06 02:13:42;;;;;;;53.77;33.63;;;11.30;1.00;;;;;;5025262;28;20183;-82
2023/11/06 02:19:29;;;;;;;3.30;1.17;;;11.30;1.00;;;;;;5034287;28;20665;-81
2023/11/06 02:25:34;;;;;;;7.53;1.33;;;11.30;1.00;;;;;;5017940;28;20191;-81
2023/11/06 02:28:09;;;;;;;10.37;1.70;;;11.30;1.00;;;;;;5020660;28;20790;-82
2023/11/06 02:30:45;;;;;;;8.53;1.07;;;11.30;1.00;;;;;;5031631;28;20449;-81
2023/11/06 02:33:11;;;;;;;4.47;1.03;;;11.40;1.00;;;;;;5024520;28;20482;-82
2023/11/06 02:36:03;;;;;;;9.03;1.13;;;11.40;1.00;;;;;;5027853;28;20431;-81
2023/11/06 02:39:09;;;;;;;3.27;1.07;;;11.40;1.00;;;;;;4996305;28;20436;-82
2023/11/06 02:41:51;;;;;;;13.23;1.20;;;11.40;1.00;;;;;;5019352;28;20435;-82
2023/11/06 02:47:38;;;;;;;2.97;1.03;;;11.40;1.00;;;;;;5020303;28;20457;-81
2023/11/06 02:53:51;;;;;;;12.93;1.67;;;11.30;1.00;;;;;;5019900;28;20597;-74
2023/11/06 02:56:18;;;;;;;3.00;1.07;;;11.30;1.00;;;;;;5019636;28;20420;-74
2023/11/06 02:58:43;;;;;;;5.20;0.80;;;11.40;1.00;;;;;;5027368;28;20435;-74
2023/11/06 03:01:09;;;;;;;2.43;1.27;;;11.30;1.00;;;;;;5029107;28;20403;-74
2023/11/06 03:03:35;;;;;;;3.33;1.03;;;11.40;1.00;;;;;;5016556;28;20595;-73
2023/11/06 03:06:01;;;;;;;2.40;0.80;;;11.40;1.00;;;;;;5025105;28;20179;-74
2023/11/06 03:08:27;;;;;;;4.63;1.33;;;11.40;1.00;;;;;;5022463;28;20203;-74
2023/11/06 03:11:09;;;;;;;0.93;0.70;;;11.30;1.00;;;;;;5020528;28;20165;-74
2023/11/06 03:13:45;;;;;;;1.13;0.87;;;11.40;1.00;;;;;;5017165;28;20517;-74
2023/11/06 03:16:11;;;;;;;6.13;1.30;;;11.30;1.00;;;;;;5015220;28;20905;-75
2023/11/06 03:18:37;;;;;;;5.60;0.83;;;11.30;1.00;;;;;;5022228;28;20506;-74
2023/11/06 03:21:15;;;;;;;2.23;1.00;;;11.30;1.00;;;;;;5037569;28;20164;-74
2023/11/06 03:23:41;;;;;;;5.90;0.70;;;11.30;1.00;;;;;;5024234;28;20185;-73
2023/11/06 03:26:07;;;;;;;5.90;0.83;;;11.30;1.00;;;;;;5017877;28;20495;-74
2023/11/06 03:28:34;;;;;;;1.87;0.97;;;11.30;1.00;;;;;;5030871;28;20199;-74
2023/11/06 03:31:15;;;;;;;6.03;1.27;;;11.30;1.00;;;;;;5037502;28;20152;-74
2023/11/06 03:33:41;;;;;;;2.67;0.80;;;11.30;1.00;;;;;;5027526;28;20436;-74
2023/11/06 03:36:07;;;;;;;3.57;1.20;;;11.30;1.00;;;;;;5026341;28;20403;-74
2023/11/06 03:38:33;;;;;;;3.57;1.10;;;11.30;1.00;;;;;;5010112;28;20445;-82
2023/11/06 03:41:39;;;;;;;2.53;0.87;;;11.30;1.00;;;;;;5018165;28;20488;-82
2023/11/06 03:44:39;;;;;;;1.77;0.80;;;11.30;1.00;;;;;;5019728;28;20396;-82
2023/11/06 03:50:33;;;;;;;1.43;0.70;;;11.20;1.00;;;;;;5024560;28;20378;-82
2023/11/06 03:53:51;;;;;;;1.50;0.77;;;11.20;1.00;;;;;;5026736;28;20412;-81
2023/11/06 03:56:27;;;;;;;2.53;0.90;;;11.00;1.00;;;;;;4997747;28;20428;-82
2023/11/06 03:59:05;;;;;;;4.77;0.87;;;11.10;1.00;;;;;;5010421;28;20419;-82
2023/11/06 04:11:37;;;;;;;3.80;0.77;;;10.80;1.00;;;;;;5005888;28;20410;-82
2023/11/06 04:17:40;;;;;;;11.90;1.83;;;10.80;1.00;;;;;;5030116;28;20777;-82
2023/11/06 04:23:29;;;;;;;7.67;0.90;;;10.80;1.00;;;;;;4997280;28;20420;-74
2023/11/06 04:25:55;;;;;;;2.07;0.97;;;10.80;1.00;;;;;;4996066;28;20747;-74
2023/11/06 04:28:27;;;;;;;3.13;0.90;;;10.80;1.00;;;;;;5013244;28;20459;-74
2023/11/06 04:30:53;;;;;;;8.23;0.80;;;10.80;1.00;;;;;;5029998;28;20265;-74
2023/11/06 04:33:21;;;;;;;4.30;0.70;;;10.80;1.00;;;;;;5016307;28;21074;-74
2023/11/06 04:35:51;;;;;;;7.70;1.30;;;10.80;1.00;;;;;;5022007;28;20580;-74
2023/11/06 04:38:21;;;;;;;3.60;0.80;;;10.80;1.00;;;;;;5033900;28;20427;-74
2023/11/06 04:40:47;;;;;;;6.23;0.80;;;10.80;1.00;;;;;;5022739;28;20423;-74
2023/11/06 04:43:16;;;;;;;2.37;0.80;;;10.70;1.00;;;;;;5019613;28;20918;-76
2023/11/06 04:45:57;;;;;;;1.83;0.70;;;10.70;1.00;;;;;;5036279;28;20158;-74
2023/11/06 04:48:28;;;;;;;4.13;0.90;;;10.60;1.00;;;;;;5032940;28;20854;-74
2023/11/06 04:50:54;;;;;;;6.63;1.00;;;10.70;1.00;;;;;;5026958;28;20486;-74
2023/11/06 04:56:57;;;;;;;0.60;0.60;;;10.50;1.00;;;;;;5028496;28;20175;-82
2023/11/06 05:03:39;;;;;;;4.77;0.73;;;10.50;1.00;;;;;;5016193;28;20463;-82
2023/11/06 05:06:39;;;;;;;3.30;1.10;;;10.40;1.00;;;;;;5009509;28;20428;-82
2023/11/06 05:09:10;;;;;;;8.00;0.93;;;10.40;1.00;;;;;;5014533;28;20444;-82
2023/11/06 05:11:40;;;;;;;5.63;1.00;;;10.30;1.00;;;;;;5016086;28;20472;-82
2023/11/06 05:14:39;;;;;;;2.00;0.70;;;10.30;1.00;;;;;;5032910;28;20464;-82
2023/11/06 05:17:10;;;;;;;6.43;1.10;;;10.30;1.00;;;;;;5026655;28;20784;-82
2023/11/06 05:19:51;;;;;;;4.87;0.80;;;10.40;1.00;;;;;;5009378;28;20795;-81
2023/11/06 05:32:23;;;;;;;7.90;1.00;;;10.30;1.00;;;;;;4996079;28;20377;-82
2023/11/06 05:35:39;;;;;;;3.07;1.30;;;10.20;1.00;;;;;;5021967;28;20917;-81
2023/11/06 05:38:39;;;;;;;4.73;1.30;;;10.30;1.00;;;;;;5018660;28;20189;-81
2023/11/06 05:44:26;;;;;;;9.60;1.33;;;10.20;1.00;;;;;;5003225;28;20411;-81
2023/11/06 05:47:04;;;;;;;4.63;1.00;;;10.30;1.00;;;;;;5005632;28;20423;-81
2023/11/06 05:49:45;;;;;;;2.43;0.73;;;10.20;1.00;;;;;;5005246;28;20234;-82
2023/11/06 05:55:33;;;;;;;6.00;1.10;;;10.30;1.00;;;;;;5011257;28;20469;-74
2023/11/06 05:58:15;;;;;;;7.17;1.30;;;10.40;1.00;;;;;;5025285;28;20871;-74
2023/11/06 06:00:41;;;;;;;6.70;1.73;;;10.40;1.00;;;;;;5023356;28;20852;-74
2023/11/06 06:03:16;;;;;;;2.50;1.03;;;10.30;1.00;;;;;;5014386;28;20510;-75
2023/11/06 06:05:45;;;;;;;16.07;1.00;;;10.30;1.00;;;;;;5014201;28;20184;-75
2023/11/06 06:08:12;;;;;;;7.43;1.00;;;10.30;1.00;;;;;;5020661;28;20528;-75
2023/11/06 06:10:40;;;;;;;3.60;0.80;;;10.40;1.00;;;;;;5016477;28;20875;-75
2023/11/06 06:13:05;;;;;;;5.30;1.17;;;10.30;1.00;;;;;;5017196;28;20458;-75
2023/11/06 06:15:39;;;;;;;19.03;1.17;;;10.40;1.00;;;;;;5013984;28;20911;-74
2023/11/06 06:18:09;;;;;;;8.17;1.30;;;10.30;1.00;;;;;;5034292;28;20663;-76
2023/11/06 06:20:39;;;;;;;8.53;1.03;;;10.30;1.00;;;;;;5027697;28;20452;-75
2023/11/06 06:23:05;;;;;;;3.17;1.00;;;10.40;1.00;;;;;;5028535;28;20410;-75
2023/11/06 06:26:09;;;;;;;1.90;1.00;;;10.60;1.00;;;;;;5016635;28;20968;-81
2023/11/06 06:31:56;;;;;;;11.80;1.27;;;10.20;1.00;;;;;;5014048;28;20450;-81
2023/11/06 06:37:44;;;;;;;3.67;0.77;;;;;;;;;;5017638;28;20199;-81
2023/11/06 06:40:11;;;;;;;2.63;1.27;;;10.20;1.00;;;;;;5026677;28;20412;-74
2023/11/06 06:42:36;;;;;;;4.47;1.00;;;10.20;1.00;;;;;;5018593;28;20433;-74
2023/11/06 06:45:04;;;;;;;8.53;2.23;;;10.10;1.00;;;;;;5024364;28;20947;-74
2023/11/06 06:47:30;;;;;;;17.53;6.43;;;;;;;;;;5005445;28;20974;-74
2023/11/06 06:49:56;;;;;;;5.50;1.20;;;10.20;1.00;;;;;;5000558;28;20424;-74
2023/11/06 06:52:27;;;;;;;6.73;1.67;;;10.20;1.00;;;;;;5018348;28;20418;-74
2023/11/06 06:55:04;;;;;;;4.63;1.10;;;10.20;1.00;;;;;;5028120;28;20231;-74
2023/11/06 06:57:39;;;;;;;4.03;1.10;;;10.30;1.00;;;;;;5025421;28;20424;-74
2023/11/06 07:00:08;;;;;;;7.30;1.40;;;10.30;1.00;;;;;;5031233;28;20402;-74
2023/11/06 07:02:34;;;;;;;2.87;1.37;;;10.40;1.00;;;;;;5017506;28;20549;-73
2023/11/06 07:04:59;;;;;;;12.13;1.67;;;10.30;1.00;;;;;;5028252;28;20514;-73
2023/11/06 07:07:25;;;;;;;5.03;1.30;;;;;;;;;;5026484;28;20215;-73
2023/11/06 07:09:52;;;;;;;5.00;1.10;;;10.40;1.00;;;;;;5023898;28;20715;-73
2023/11/06 07:12:18;;;;;;;2.77;1.10;;;10.50;1.00;;;;;;5004939;28;20420;-73
2023/11/06 07:14:44;;;;;;;4.77;1.17;;;10.40;1.00;;;;;;5014210;28;20441;-73
2023/11/06 07:17:17;;;;;;;3.10;1.00;;;10.40;1.00;;;;;;5027077;28;20498;-73
2023/11/06 07:20:10;;;;;;;2.83;0.70;;;10.50;1.00;;;;;;5014228;28;20173;-74
2023/11/06 07:22:39;;;;;;;3.10;0.80;;;10.50;1.00;;;;;;5018776;28;21064;-74
2023/11/06 07:28:51;;;;;;;2.57;1.10;;;10.70;1.00;;;;;;5009942;28;20492;-81
2023/11/06 07:32:10;;;;;;;4.77;0.87;;;10.80;1.00;;;;;;5008032;28;20409;-81
2023/11/06 07:35:21;;;;;;;1.93;1.03;;;10.90;1.00;;;;;;5002603;28;20770;-81
2023/11/06 07:38:10;;;;;;;2.57;0.80;;;11.10;1.00;;;;;;5020882;28;20496;-81
2023/11/06 07:41:12;;;;;;;7.30;1.40;;;11.20;1.00;;;;;;5012658;28;20433;-81
2023/11/06 07:43:57;;;;;;;7.20;0.77;;;11.20;1.00;;;;;;5027046;28;20435;-82
2023/11/06 07:46:51;;;;;;;5.53;2.60;;;11.30;1.00;;;;;;5005632;28;20464;-81
2023/11/06 07:56:04;;;;;;;9.73;1.23;;;11.50;1.00;;;;;;5013476;28;20381;-73
2023/11/06 07:58:29;;;;;;;10.03;1.30;;;11.50;1.00;;;;;;5019230;28;20385;-73
2023/11/06 08:00:55;;;;;;;6.80;1.07;;;11.60;1.00;;;;;;5026954;28;20438;-73
2023/11/06 08:03:21;;;;;;;4.30;1.00;;;11.70;1.00;;;;;;5018619;28;20263;-73
2023/11/06 08:06:05;;;;;;;5.47;1.10;;;11.70;1.00;;;;;;5015452;28;20466;-74
2023/11/06 08:08:52;;;;;;;8.07;1.87;;;11.90;1.00;;;;;;5013925;28;20459;-83
2023/11/06 08:11:35;;;;;;;3.20;1.17;;;12.00;1.00;;;;;;5015570;28;20532;-84
2023/11/06 08:14:15;;;;;;;4.03;1.07;;;12.00;1.00;;;;;;5016233;28;20423;-84
2023/11/06 08:23:26;;;;;;;1.73;1.00;;;11.80;1.00;;;;;;5025767;28;20431;-84
2023/11/06 08:26:10;;;;;;;5.67;1.20;;;12.00;1.00;;;;;;5012361;28;20965;-84
2023/11/06 08:29:03;;;;;;;2.50;0.93;;;12.10;1.00;;;;;;5026871;28;20466;-83
2023/11/06 08:32:11;;;;;;;3.13;1.00;;;12.30;1.00;;;;;;5029166;28;20419;-83
2023/11/06 08:35:09;;;;;;;5.60;1.20;;;12.40;1.00;;;;;;5024526;28;20432;-85
2023/11/06 08:41:09;;;;;;;12.00;1.30;;;12.30;1.00;;;;;;5028792;28;20759;-76
2023/11/06 08:43:35;;;;;;;3.10;1.20;;;12.40;1.00;;;;;;5016343;28;20929;-74
2023/11/06 08:46:02;;;;;;;7.77;1.30;;;12.30;1.00;;;;;;5013590;28;20520;-72
2023/11/06 08:48:28;;;;;;;10.20;1.20;;;12.40;1.00;;;;;;5020431;28;20542;-72
2023/11/06 08:50:54;;;;;;;7.70;1.93;;;12.60;1.00;;;;;;5017883;28;20431;-73
2023/11/06 08:53:20;;;;;;;2.70;1.20;;;12.60;1.00;;;;;;5021232;28;20415;-73
2023/11/06 08:55:47;;;;;;;8.50;1.37;;;12.70;1.00;;;;;;5017552;28;20189;-82
2023/11/06 08:58:40;;;;;;;5.70;1.53;;;12.70;1.00;;;;;;5021935;28;20177;-82
2023/11/06 09:01:33;;;;;;;7.57;1.30;;;12.80;1.00;;;;;;5029457;28;20407;-82
2023/11/06 09:04:40;;;;;;;1.57;1.03;;;12.80;1.00;;;;;;5014402;28;20444;-82
2023/11/06 09:07:23;;;;;;;10.00;2.07;;;13.00;1.00;;;;;;5022095;28;20433;-82
2023/11/06 09:10:27;;;;;;;4.63;1.27;;;13.10;1.00;;;;;;5035822;28;20419;-82
2023/11/06 09:12:55;;;;;;;7.60;1.47;;;13.10;1.00;;;;;;5017483;28;20398;-73
2023/11/06 09:15:21;;;;;;;3.70;0.80;;;13.20;1.00;;;;;;5019049;28;20414;-72
2023/11/06 09:17:47;;;;;;;4.20;1.23;;;13.20;1.00;;;;;;5015758;28;20958;-73
2023/11/06 09:20:13;;;;;;;8.10;0.93;;;13.20;1.00;;;;;;5024473;28;20527;-73
2023/11/06 09:22:41;;;;;;;4.90;1.50;;;13.20;1.00;;;;;;5013981;28;20213;-73
2023/11/06 09:25:07;;;;;;;11.30;1.50;;;13.10;1.00;;;;;;5031407;28;20419;-73
2023/11/06 09:31:40;;;;;;;6.23;1.30;;;13.50;1.00;;;;;;5016801;28;20410;-82
2023/11/06 09:34:39;;;;;;;3.10;1.17;;;13.40;1.00;;;;;;5034301;28;20403;-82
2023/11/06 09:37:09;;;;;;;2.90;1.00;;;13.40;1.00;;;;;;5015484;28;20392;-85
2023/11/06 09:39:43;;;;;;;4.73;1.10;;;13.50;1.00;;;;;;5030330;28;20467;-81
2023/11/06 09:42:12;;;;;;;6.67;0.93;;;13.70;1.00;;;;;;5013593;28;20471;-82
2023/11/06 09:44:39;;;;;;;2.27;1.30;;;13.50;1.00;;;;;;5010001;28;20479;-82
2023/11/06 09:47:09;;;;;;;6.67;1.40;;;13.70;1.00;;;;;;5008153;28;20447;-82
2023/11/06 09:50:13;;;;;;;5.50;1.13;;;13.70;1.00;;;;;;5017011;28;20400;-83
2023/11/06 09:52:38;;;;;;;7.90;1.40;;;14.00;1.00;;;;;;5019179;28;20399;-82
2023/11/06 09:55:06;;;;;;;7.80;0.80;;;14.10;1.00;;;;;;5022848;28;20393;-82
2023/11/06 09:57:33;;;;;;;10.17;1.27;;;14.10;1.00;;;;;;5012741;28;20181;-74
2023/11/06 10:00:04;;;;;;;3.83;1.13;;;14.30;1.00;;;;;;5014526;28;20470;-74
2023/11/06 10:02:29;;;;;;;5.50;1.07;;;14.50;1.00;;;;;;5012089;28;20404;-74
2023/11/06 10:04:55;;;;;;;9.27;1.63;;;14.50;1.00;;;;;;5024023;28;20745;-73
2023/11/06 10:07:41;;;;;;;6.30;1.27;;;14.60;1.00;;;;;;5027769;28;20196;-74
2023/11/06 10:10:20;;;;;;;2.60;0.90;;;14.50;1.00;;;;;;5027436;28;20188;-74
2023/11/06 10:13:13;;;;;;;10.57;1.10;;;14.60;1.00;;;;;;5035086;28;20399;-83
2023/11/06 10:16:29;;;;;;;5.13;1.23;;;14.90;1.00;;;;;;5011723;28;20455;-83
2023/11/06 10:22:16;;;;;;;9.00;1.10;;;14.80;1.00;;;;;;4972780;28;20777;-82
2023/11/06 10:25:09;;;;;;;6.17;1.47;;;14.70;1.00;;;;;;4954407;28;20518;-82
2023/11/06 10:27:36;;;;;;;8.97;1.23;;;14.30;1.00;;;;;;4965203;28;20230;-73
2023/11/06 10:30:04;;;;;;;10.53;1.17;;;14.30;1.00;;;;;;4969560;28;20442;-74
2023/11/06 10:32:30;;;;;;;5.17;1.40;;;14.10;1.00;;;;;;4972212;28;20420;-74
2023/11/06 10:35:14;;;;;;;6.20;1.67;;;14.00;1.00;;;;;;4988990;28;20463;-73
2023/11/06 10:37:46;;;;;;;2.30;1.13;;;13.90;1.00;;;;;;4965053;28;20185;-73
2023/11/06 10:40:18;;;;;;;18.23;1.30;;;13.80;1.00;;;;;;4972295;28;20435;-74
2023/11/06 10:43:39;;;;;;;7.73;1.17;;;13.90;1.00;;;;;;4974903;28;20415;-82
2023/11/06 10:49:39;;;;;;;6.33;1.00;;;13.80;1.00;;;;;;4971436;28;20823;-82
2023/11/06 10:52:10;;;;;;;4.57;1.20;;;14.00;1.00;;;;;;4973758;28;20535;-82
2023/11/06 10:55:12;;;;;;;5.33;0.90;;;13.80;1.00;;;;;;4965778;28;20408;-82
2023/11/06 10:58:10;;;;;;;14.50;1.43;;;13.70;1.00;;;;;;5014605;28;20394;-82
2023/11/06 11:01:09;;;;;;;5.20;1.50;;;13.70;1.00;;;;;;5013482;28;20398;-81
2023/11/06 11:03:41;;;;;;;6.33;0.77;;;13.50;1.00;;;;;;5026171;28;20416;-82
2023/11/06 11:06:40;;;;;;;5.03;1.07;;;13.50;1.00;;;;;;5026767;28;20869;-82
2023/11/06 11:12:40;;;;;;;6.83;1.20;;;13.30;1.00;;;;;;5014719;28;20969;-82
2023/11/06 11:15:41;;;;;;;6.30;1.30;;;13.30;1.00;;;;;;5014127;28;20442;-82
2023/11/06 11:22:09;;;;;;;6.07;1.40;;;13.40;1.00;;;;;;5016646;28;20413;-82
2023/11/06 11:25:09;;;;;;;4.10;1.20;;;13.70;1.00;;;;;;5013815;28;20768;-83
2023/11/06 11:27:35;;;;;;;11.90;1.37;;;14.40;1.00;;;;;;5010527;28;20524;-74
2023/11/06 11:30:00;;;;;;;9.87;2.27;;;14.40;1.00;;;;;;4999741;28;20463;-73
2023/11/06 11:32:36;;;;;;;10.13;1.47;;;14.70;1.00;;;;;;5025283;28;20183;-74
2023/11/06 11:35:26;;;;;;;4.10;1.00;;;14.70;1.00;;;;;;5018096;28;20195;-74
2023/11/06 11:37:58;;;;;;;5.30;1.57;;;14.70;1.00;;;;;;4969941;28;20453;-74
2023/11/06 11:40:48;;;;;;;2.03;1.00;;;14.90;1.00;;;;;;4981517;28;20819;-73
2023/11/06 11:43:23;;;;;;;3.30;1.27;;;14.90;1.00;;;;;;4948114;29;20403;-74
2023/11/06 11:45:50;;;;;;;2.90;0.90;;;15.00;1.00;;;;;;4930044;29;20405;-73
2023/11/06 11:48:16;;;;;;;2.77;0.90;;;14.90;1.00;;;;;;4948523;29;20565;-73
2023/11/06 11:50:43;;;;;;;2.77;0.97;;;14.80;1.00;;;;;;4937405;29;20436;-73
2023/11/06 11:53:29;;;;;;;6.63;1.20;;;14.30;1.00;;;;;;4947907;29;20440;-73
2023/11/06 11:55:58;;;;;;;6.87;0.97;;;14.20;1.00;;;;;;4934453;29;20418;-73
2023/11/06 11:58:24;;;;;;;4.70;1.30;;;14.10;1.00;;;;;;4952286;29;20423;-74
2023/11/06 12:00:54;;;;;;;4.97;1.10;;;14.10;1.00;;;;;;4939204;29;20413;-73
2023/11/06 12:03:24;;;;;;;5.63;1.00;;;13.80;1.00;;;;;;4944051;29;20421;-73
2023/11/06 12:05:56;;;;;;;5.33;0.70;;;13.80;1.00;;;;;;4935763;29;20786;-73
2023/11/06 12:08:26;;;;;;;12.83;1.37;;;13.80;1.00;;;;;;4940535;29;20906;-73
2023/11/06 12:10:53;;;;;;;3.07;1.33;;;14.00;1.00;;;;;;4949399;29;20486;-73
2023/11/06 12:13:23;;;;;;;4.70;1.20;;;14.10;1.00;;;;;;4945691;29;20571;-73
2023/11/06 12:15:53;;;;;;;4.20;0.97;;;14.30;1.00;;;;;;4952516;28;20537;-74
2023/11/06 12:18:23;;;;;;;4.00;1.40;;;14.40;1.00;;;;;;4954555;28;20431;-73
2023/11/06 12:20:56;;;;;;;3.90;1.23;;;14.60;1.00;;;;;;4992430;28;20448;-73
2023/11/06 12:23:31;;;;;;;2.37;0.90;;;14.60;1.00;;;;;;5020194;28;20405;-73
2023/11/06 12:26:06;;;;;;;6.00;0.90;;;14.60;1.00;;;;;;5013889;28;20956;-73
2023/11/06 12:29:09;;;;;;;6.73;1.60;;;14.50;1.00;;;;;;5022230;28;20455;-82
2023/11/06 12:32:30;;;;;;;2.23;0.90;;;14.20;1.00;;;;;;5017218;28;20469;-82
2023/11/06 12:41:42;;;;;;;4.67;1.00;;;14.00;1.00;;;;;;4958333;28;20430;-82
2023/11/06 12:44:11;;;;;;;3.57;0.80;;;13.90;1.00;;;;;;4947115;29;20438;-82
2023/11/06 12:47:04;;;;;;;1.43;0.63;;;14.00;1.00;;;;;;4964572;28;20432;-82
2023/11/06 12:50:11;;;;;;;0.90;0.80;;;13.90;1.00;;;;;;4953313;28;20442;-81
2023/11/06 12:53:09;;;;;;;2.20;1.00;;;13.90;1.00;;;;;;4957850;28;20409;-82
2023/11/06 12:55:40;;;;;;;7.60;0.93;;;14.10;1.00;;;;;;4951631;28;20441;-81
2023/11/06 12:58:09;;;;;;;4.37;0.77;;;14.10;1.00;;;;;;4954490;29;20411;-72
2023/11/06 13:00:37;;;;;;;4.13;1.63;;;14.10;1.00;;;;;;4960156;28;20495;-72
2023/11/06 13:03:04;;;;;;;1.90;0.70;;;14.20;1.00;;;;;;4961983;28;20526;-72
2023/11/06 13:05:29;;;;;;;1.70;0.70;;;14.10;1.00;;;;;;4953149;28;20794;-72
2023/11/06 13:07:55;;;;;;;0.93;0.60;;;14.10;1.00;;;;;;4969882;28;20485;-72
2023/11/06 13:10:21;;;;;;;2.07;0.80;;;13.80;1.00;;;;;;5029523;28;20180;-73
2023/11/06 13:12:48;;;;;;;3.23;1.00;;;13.80;1.00;;;;;;5027439;28;20543;-78
2023/11/06 13:15:15;;;;;;;3.60;0.80;;;13.80;1.00;;;;;;5014735;28;20402;-73
2023/11/06 13:17:41;;;;;;;5.17;0.80;;;13.60;1.00;;;;;;5023568;28;20485;-74
2023/11/06 13:20:25;;;;;;;1.57;0.63;;;13.70;1.00;;;;;;5020052;28;20431;-73
2023/11/06 13:22:57;;;;;;;7.93;0.87;;;13.60;1.00;;;;;;5021928;28;20418;-77
2023/11/06 13:25:26;;;;;;;1.07;0.87;;;13.60;1.00;;;;;;5011790;28;21176;-74
2023/11/06 13:28:10;;;;;;;6.93;1.10;;;13.70;1.00;;;;;;5011486;28;20518;-79
2023/11/06 13:30:38;;;;;;;1.83;0.80;;;13.50;1.00;;;;;;5015237;28;20468;-82
2023/11/06 13:33:08;;;;;;;1.77;0.80;;;13.60;1.00;;;;;;5015722;28;20419;-82
2023/11/06 13:35:40;;;;;;;13.13;1.20;;;;;;;;;;5024845;28;20786;-81
2023/11/06 13:38:10;;;;;;;3.90;0.87;;;13.70;1.00;;;;;;5022857;28;20444;-82
2023/11/06 13:40:43;;;;;;;6.33;1.13;;;13.60;1.00;;;;;;5023794;28;20523;-82
2023/11/06 13:43:10;;;;;;;17.27;1.20;;;13.50;1.00;;;;;;4996700;28;20372;-75
2023/11/06 13:45:35;;;;;;;4.53;0.80;;;13.50;1.00;;;;;;5017022;28;20516;-74
2023/11/06 13:48:09;;;;;;;5.23;0.80;;;13.40;1.00;;;;;;5023107;28;21044;-74
2023/11/06 13:51:10;;;;;;;5.23;1.03;;;13.40;1.00;;;;;;5017621;28;20239;-74
2023/11/06 13:53:50;;;;;;;6.90;0.80;;;13.40;1.00;;;;;;4998236;28;20390;-74
2023/11/06 13:56:29;;;;;;;6.87;1.30;;;13.40;1.00;;;;;;5015798;28;20431;-74
2023/11/06 13:58:55;;;;;;;4.67;1.00;;;;;;;;;;5015085;28;20423;-73
2023/11/06 14:01:31;;;;;;;5.80;0.90;;;13.00;1.00;;;;;;5011085;28;20436;-74
2023/11/06 14:03:57;;;;;;;2.93;1.00;;;12.90;1.00;;;;;;5014537;28;20440;-74
2023/11/06 14:06:25;;;;;;;11.20;1.23;;;13.00;1.00;;;;;;5034537;28;20429;-74
2023/11/06 14:09:32;;;;;;;1.73;1.07;;;12.90;1.00;;;;;;5029299;28;20664;-74
2023/11/06 14:11:52;;;;;;;3.37;0.77;;;12.90;1.00;;;;;;5017931;28;20405;-74
2023/11/06 14:14:22;;;;;;;4.80;1.33;;;12.90;1.00;;;;;;5015946;28;20507;-74
2023/11/06 14:16:55;;;;;;;2.80;1.07;;;12.90;1.00;;;;;;5000744;28;20551;-74
2023/11/06 14:19:25;;;;;;;9.00;1.20;;;12.90;1.00;;;;;;5013346;28;20438;-74
2023/11/06 14:21:51;;;;;;;5.60;1.40;;;12.90;1.00;;;;;;5014110;28;20571;-74
2023/11/06 14:24:19;;;;;;;11.13;0.93;;;12.90;1.00;;;;;;5019212;28;20428;-74
2023/11/06 14:26:45;;;;;;;9.43;0.90;;;12.90;1.00;;;;;;5015700;28;20437;-73
2023/11/06 14:29:39;;;;;;;3.80;1.20;;;12.80;1.00;;;;;;5017894;28;20808;-83
2023/11/06 14:32:11;;;;;;;11.63;1.77;;;12.80;1.00;;;;;;4994696;28;20413;-82
2023/11/06 14:35:11;;;;;;;7.20;1.20;;;12.60;1.00;;;;;;5010429;28;20413;-81
2023/11/06 14:37:53;;;;;;;1.97;1.00;;;12.60;1.00;;;;;;5014397;28;20503;-82
2023/11/06 14:41:09;;;;;;;3.77;1.13;;;12.50;1.00;;;;;;5005371;28;20431;-82
2023/11/06 14:43:40;;;;;;;0.93;0.70;;;12.20;1.00;;;;;;5004228;28;20906;-74
2023/11/06 14:46:10;;;;;;;2.57;0.77;;;12.00;1.00;;;;;;5018063;28;20439;-82
2023/11/06 14:48:40;;;;;;;2.07;0.70;;;12.00;1.00;;;;;;5016273;28;21024;-82
2023/11/06 14:51:07;;;;;;;5.70;1.03;;;11.80;1.00;;;;;;5022905;28;20505;-82
2023/11/06 14:53:38;;;;;;;1.20;0.60;;;11.90;1.00;;;;;;5020816;28;20961;-82
2023/11/06 14:56:12;;;;;;;0.70;0.60;;;11.90;1.00;;;;;;5005372;28;20410;-81
2023/11/06 14:58:38;;;;;;;2.30;0.70;;;11.90;1.00;;;;;;5005049;28;20530;-82
2023/11/06 15:01:04;;;;;;;5.40;1.13;;;12.00;1.00;;;;;;5014871;28;20398;-73
2023/11/06 15:03:30;;;;;;;4.73;0.97;;;12.00;1.00;;;;;;5013579;28;20443;-74
2023/11/06 15:05:59;;;;;;;4.63;1.07;;;11.90;1.00;;;;;;5025819;28;20173;-74
2023/11/06 15:08:26;;;;;;;1.23;0.90;;;;;;;;;;5010052;28;21062;-74
2023/11/06 15:10:52;;;;;;;2.43;0.90;;;11.80;1.00;;;;;;5017192;28;20422;-74
2023/11/06 15:13:17;;;;;;;1.23;0.60;;;11.60;1.00;;;;;;5013163;28;20517;-74
2023/11/06 15:15:54;;;;;;;1.73;0.87;;;11.50;1.00;;;;;;5028204;28;20172;-74
2023/11/06 15:18:20;;;;;;;1.33;0.70;;;11.40;1.00;;;;;;5023869;28;20175;-74
2023/11/06 15:20:58;;;;;;;3.17;0.90;;;11.30;1.00;;;;;;5025798;28;20534;-75
2023/11/06 15:23:29;;;;;;;2.30;0.80;;;11.20;1.00;;;;;;5015360;28;20427;-74
2023/11/06 15:25:55;;;;;;;5.43;0.90;;;11.20;1.00;;;;;;5018492;28;20428;-74
2023/11/06 15:28:21;;;;;;;0.80;0.63;;;11.10;1.00;;;;;;4998297;28;20543;-75
2023/11/06 15:31:12;;;;;;;8.00;1.30;;;11.00;1.00;;;;;;5023095;28;20489;-81
2023/11/06 15:33:40;;;;;;;6.10;1.53;;;10.90;1.00;;;;;;5005673;28;20177;-80
2023/11/06 15:36:10;;;;;;;1.10;0.70;;;10.90;1.00;;;;;;5012478;28;20431;-80
2023/11/06 15:39:09;;;;;;;3.87;0.90;;;10.90;1.00;;;;;;5013241;28;20518;-80
2023/11/06 15:45:10;;;;;;;2.77;0.80;;;10.90;1.00;;;;;;5028400;28;20407;-81
2023/11/06 15:47:40;;;;;;;3.70;1.20;;;10.90;1.00;;;;;;5024281;28;20479;-82